Andover, Minnesota
Current Conditions -  °F | °C
As of 10:45 AM on Friday 28 Nov 2014 (Local Time) from KANE Reporting Station
Overcast Overcast  
Wind Chill: -13°   Ceiling: 2200
Heat Index: -7°   Visibility: 10mi
Dew Point: -11°   Wind: 8mph
Humidity: 74%   Direction: 120°ESE
Pressure: 29.97"   Gusts: NA
Location:  45.24°N, 93.31°W
Report Text: KANE 281645Z 12007KT 10SM OVC022 M07/M11 A2997
Loading
Personal Weather Stations






























Interactive Weather Map New forecast layout! Learn more

10-Day Weather Forecast

Advertisements
Track Severe Weather on mobile